Tongo Airport

Jump to: basic info | weather | comments

Related pages: nearby airports | nearby navaids | notams | map

Basic information (top)

Codes: GFTO
Location: lon 8.217000, lat -11.067000, elev 750 ft / 229 m msl
Status: small_airport

Weather (top)

Current conditions for Roberts International Airport 126nm (234km) SSE (rec'd 2014/11/26 10:00Z):

GLRB 261000Z 00000KT 9999 BKN014 27/25 Q1013 NOSIG

Airport forecast for Roberts International Airport 126nm (234km) SSE (rec'd 2014/11/26 06:54Z):

TAF TAF GLRB 260400Z 2606/2712 26010KT 9000 SCT013 FEW024CB 
      TEMPO 2607/2611 24008KT 6000 RA/TSRA SCT003 BKN016 FEW026CB 
     FM261200 23010KT 9999 BKN017 FEW028CB 
      TEMPO 2617/2621 25006KT 9999 BKN015 FEW024CB

Latest comments (top)

No comments yet for Tongo Airport

More... (top)

See also NOTAMs and nearby airports and navaids, or visit the Tongo Airport page at the main OurAirports website..